createdAt,value
2018-07-20T00:58:34.031Z,7.07
2018-07-20T01:01:02.737Z,7.17
2018-07-20T01:03:31.104Z,6.63
2018-07-20T01:05:59.630Z,7.43
2018-07-20T01:08:28.152Z,6.87
2018-07-20T01:10:56.572Z,6.97
2018-07-20T01:13:25.059Z,7.10
2018-07-20T01:15:53.455Z,6.77
2018-07-20T01:18:22.238Z,6.73
2018-07-20T01:20:53.466Z,7.63
2018-07-20T01:23:21.910Z,7.70
2018-07-20T01:25:50.293Z,7.70
2018-07-20T01:28:19.856Z,11.40
2018-07-20T01:30:48.252Z,7.83
2018-07-20T01:33:16.653Z,7.53
2018-07-20T01:35:45.285Z,7.23
2018-07-20T01:38:13.943Z,7.20
2018-07-20T01:40:42.350Z,7.07
2018-07-20T01:43:10.810Z,7.13
2018-07-20T01:45:39.217Z,10.20
2018-07-20T01:48:07.628Z,7.90
2018-07-20T01:50:36.289Z,7.37
2018-07-20T01:53:04.644Z,7.87
2018-07-20T01:55:33.026Z,7.30
2018-07-20T01:58:01.540Z,7.03
2018-07-20T02:00:29.937Z,7.00
2018-07-20T02:02:58.786Z,6.40
2018-07-20T02:05:27.464Z,7.17
2018-07-20T02:07:55.961Z,7.17
2018-07-20T02:10:24.464Z,7.43
2018-07-20T02:12:53.126Z,6.50
2018-07-20T02:15:21.518Z,6.77
2018-07-20T02:17:49.920Z,6.53
2018-07-20T02:20:19.004Z,6.60
2018-07-20T02:22:47.915Z,7.00
2018-07-20T02:25:16.286Z,9.13
2018-07-20T02:27:44.749Z,6.50
2018-07-20T02:30:13.251Z,6.67
2018-07-20T02:32:41.662Z,6.80
2018-07-20T02:35:10.342Z,6.17
2018-07-20T02:37:38.746Z,6.27
2018-07-20T02:40:07.160Z,6.63
2018-07-20T02:42:35.661Z,6.90
2018-07-20T02:45:05.404Z,7.23
2018-07-20T02:47:33.845Z,6.90
2018-07-20T02:50:02.226Z,7.00
2018-07-20T02:52:30.672Z,7.00
2018-07-20T02:54:59.039Z,6.77
2018-07-20T02:57:27.514Z,7.10
2018-07-20T02:59:55.945Z,6.40
2018-07-20T03:02:24.327Z,7.00
2018-07-20T03:04:52.804Z,6.30
2018-07-20T03:07:21.889Z,7.03
2018-07-20T03:09:50.275Z,6.60
2018-07-20T03:12:18.686Z,7.03
2018-07-20T03:14:47.988Z,7.17
2018-07-20T03:17:17.066Z,6.70
2018-07-20T03:19:45.426Z,6.83
2018-07-20T03:22:13.837Z,6.60
2018-07-20T03:24:42.194Z,7.00
2018-07-20T03:27:10.653Z,6.67
2018-07-20T03:29:39.883Z,7.10
2018-07-20T03:32:08.271Z,7.10
2018-07-20T03:34:36.684Z,6.83
2018-07-20T03:37:05.423Z,7.23
2018-07-20T03:39:35.586Z,7.60
2018-07-20T03:42:04.804Z,7.63
2018-07-20T03:44:33.493Z,7.33
2018-07-20T03:47:02.001Z,8.00
2018-07-20T03:49:30.412Z,11.10
2018-07-20T03:51:58.788Z,7.50
2018-07-20T03:54:27.484Z,11.17
2018-07-20T03:56:56.375Z,8.33
2018-07-20T03:59:25.632Z,7.40
2018-07-20T04:01:54.004Z,8.20
2018-07-20T04:04:23.314Z,8.47
2018-07-20T04:06:51.756Z,8.40
2018-07-20T04:09:20.184Z,8.00
2018-07-20T04:11:48.551Z,8.50
2018-07-20T04:14:17.085Z,8.20
2018-07-20T04:16:47.269Z,8.67
2018-07-20T04:19:15.690Z,8.70
2018-07-20T04:21:44.328Z,8.57
2018-07-20T04:24:13.955Z,8.33
2018-07-20T04:26:42.479Z,8.70
2018-07-20T04:29:10.869Z,12.07
2018-07-20T04:31:39.335Z,8.30
2018-07-20T04:34:07.813Z,8.37
2018-07-20T04:36:37.981Z,8.17
2018-07-20T04:39:09.738Z,8.40
2018-07-20T04:41:38.180Z,8.20
2018-07-20T04:44:06.735Z,8.97
2018-07-20T04:46:36.125Z,8.50
2018-07-20T04:49:04.766Z,7.90
2018-07-20T04:51:33.556Z,8.63
2018-07-20T04:54:02.301Z,8.10
2018-07-20T04:56:31.525Z,8.70
2018-07-20T04:58:59.986Z,12.17
2018-07-20T05:01:28.519Z,8.40
2018-07-20T05:03:56.986Z,11.33
2018-07-20T05:06:25.727Z,8.20
2018-07-20T05:08:54.481Z,7.70
2018-07-20T05:11:28.405Z,8.00
2018-07-20T05:13:57.205Z,7.73
2018-07-20T05:16:26.012Z,7.20
2018-07-20T05:18:54.603Z,7.20
2018-07-20T05:21:23.218Z,7.37
2018-07-20T05:23:51.937Z,7.23
2018-07-20T05:26:20.667Z,7.23
2018-07-20T05:28:50.092Z,7.07
2018-07-20T05:31:18.554Z,8.80
2018-07-20T05:33:47.312Z,7.23
2018-07-20T05:36:16.213Z,10.50
2018-07-20T05:38:45.088Z,8.10
2018-07-20T05:41:14.853Z,9.10
2018-07-20T05:43:44.028Z,7.87
2018-07-20T05:46:21.319Z,7.33
2018-07-20T05:48:49.912Z,7.57
2018-07-20T05:51:20.340Z,8.03
2018-07-20T05:53:49.015Z,6.93
2018-07-20T05:56:18.050Z,8.00
2018-07-20T05:58:46.472Z,6.57
2018-07-20T06:01:14.928Z,6.40
2018-07-20T06:03:43.370Z,6.60
2018-07-20T06:06:11.915Z,6.33
2018-07-20T06:08:40.456Z,6.13
2018-07-20T06:11:09.263Z,5.93
2018-07-20T06:13:37.620Z,5.37
2018-07-20T06:16:06.223Z,5.80
2018-07-20T06:18:35.175Z,5.70
2018-07-20T06:21:03.675Z,5.80
2018-07-20T06:23:32.533Z,5.83
2018-07-20T06:26:00.897Z,5.43
2018-07-20T06:28:30.488Z,4.90
2018-07-20T06:30:58.986Z,5.00
2018-07-20T06:33:27.397Z,5.63
2018-07-20T06:35:56.056Z,5.37
2018-07-20T06:38:26.201Z,4.93
2018-07-20T06:40:54.623Z,4.53
2018-07-20T06:43:23.169Z,4.55
2018-07-20T06:45:51.717Z,4.45
2018-07-20T06:48:21.661Z,4.78
2018-07-20T06:50:50.168Z,4.70
2018-07-20T06:53:18.653Z,4.70
2018-07-20T06:55:47.231Z,4.97
2018-07-20T06:58:16.711Z,4.53
2018-07-20T07:00:45.192Z,4.80
2018-07-20T07:03:13.643Z,5.08
2018-07-20T07:05:42.177Z,4.60
2018-07-20T07:08:10.582Z,4.62
2018-07-20T07:10:39.911Z,4.55
2018-07-20T07:13:08.436Z,4.87
2018-07-20T07:15:36.875Z,4.70
2018-07-20T07:18:05.633Z,4.78
2018-07-20T07:20:34.132Z,4.87
2018-07-20T07:23:02.790Z,5.28
2018-07-20T07:25:31.237Z,5.00
2018-07-20T07:28:00.119Z,4.67
2018-07-20T07:30:29.405Z,4.70
2018-07-20T07:32:57.799Z,4.80
2018-07-20T07:35:26.203Z,4.97
2018-07-20T07:37:54.777Z,4.55
2018-07-20T07:40:23.214Z,4.58
2018-07-20T07:42:51.661Z,4.58
2018-07-20T07:45:20.572Z,4.90
2018-07-20T07:47:49.094Z,4.28
2018-07-20T07:50:17.624Z,4.70
2018-07-20T07:52:46.069Z,4.40
2018-07-20T07:55:14.549Z,4.78
2018-07-20T07:57:43.048Z,4.40
2018-07-20T08:00:11.486Z,4.40
2018-07-20T08:02:39.929Z,4.03
2018-07-20T08:05:08.817Z,4.40
2018-07-20T08:07:37.352Z,4.30
2018-07-20T08:10:06.077Z,4.60
2018-07-20T08:12:35.521Z,4.10
2018-07-20T08:15:04.097Z,4.30
2018-07-20T08:17:33.452Z,4.62
2018-07-20T08:20:01.931Z,4.33
2018-07-20T08:22:30.600Z,3.98
2018-07-20T08:24:59.050Z,4.62
2018-07-20T08:27:28.492Z,4.30
2018-07-20T08:29:57.142Z,4.25
2018-07-20T08:32:26.262Z,4.10
2018-07-20T08:34:54.772Z,4.05
2018-07-20T08:37:23.413Z,4.47
2018-07-20T08:39:52.017Z,4.87
2018-07-20T08:42:21.292Z,4.50
2018-07-20T08:44:49.776Z,4.35
2018-07-20T08:47:18.210Z,3.83
2018-07-20T08:49:46.951Z,3.98
2018-07-20T08:52:15.379Z,3.95
2018-07-20T08:54:43.825Z,4.17
2018-07-20T08:57:12.346Z,4.15
2018-07-20T08:59:41.004Z,4.03
2018-07-20T09:02:09.658Z,3.90
2018-07-20T09:04:38.071Z,3.80
2018-07-20T09:07:06.746Z,3.67
2018-07-20T09:09:35.258Z,3.45
2018-07-20T09:12:04.011Z,3.35
2018-07-20T09:14:32.405Z,4.08
2018-07-20T09:17:00.820Z,3.60
2018-07-20T09:19:29.342Z,3.47
2018-07-20T09:21:57.831Z,3.70
2018-07-20T09:24:26.468Z,3.35
2018-07-20T09:26:54.872Z,3.70
2018-07-20T09:29:23.411Z,3.60
2018-07-20T09:31:51.810Z,3.17
2018-07-20T09:34:22.263Z,3.45
2018-07-20T09:36:50.692Z,3.15
2018-07-20T09:39:19.107Z,3.17
2018-07-20T09:41:48.390Z,3.47
2018-07-20T09:44:16.957Z,3.20
2018-07-20T09:46:45.292Z,3.70
2018-07-20T09:49:14.723Z,3.40
2018-07-20T09:51:43.423Z,3.25
2018-07-20T09:54:12.173Z,3.27
2018-07-20T09:56:40.591Z,3.37
2018-07-20T09:59:09.689Z,3.20
2018-07-20T10:01:38.104Z,3.30
2018-07-20T10:04:06.592Z,3.00
2018-07-20T10:06:35.911Z,3.30
2018-07-20T10:09:07.316Z,3.37
2018-07-20T10:11:35.775Z,3.30
2018-07-20T10:14:04.251Z,3.40
2018-07-20T10:16:32.961Z,3.00
2018-07-20T10:19:02.537Z,3.10
2018-07-20T10:21:31.285Z,3.50
2018-07-20T10:24:00.122Z,3.33
2018-07-20T10:26:28.689Z,3.37
2018-07-20T10:28:57.110Z,3.30
2018-07-20T10:31:25.535Z,3.47
2018-07-20T10:33:53.929Z,3.42
2018-07-20T10:36:22.864Z,3.62
2018-07-20T10:38:51.681Z,3.47
2018-07-20T10:41:20.085Z,3.50
2018-07-20T10:43:48.852Z,3.52
2018-07-20T10:46:17.381Z,3.47
2018-07-20T10:48:47.567Z,3.50
2018-07-20T10:51:18.475Z,3.47
2018-07-20T10:53:48.031Z,3.47
2018-07-20T10:56:17.838Z,3.50
2018-07-20T10:58:46.341Z,3.80
2018-07-20T11:01:18.223Z,3.25
2018-07-20T11:03:46.637Z,3.50
2018-07-20T11:06:15.119Z,3.40
2018-07-20T11:08:43.624Z,3.25
2018-07-20T11:11:12.512Z,3.17
2018-07-20T11:13:43.000Z,3.70
2018-07-20T11:16:11.758Z,3.20
2018-07-20T11:18:40.367Z,3.50
2018-07-20T11:21:11.175Z,3.40
2018-07-20T11:23:39.611Z,3.40
2018-07-20T11:26:09.557Z,3.60
2018-07-20T11:28:38.203Z,3.07
2018-07-20T11:31:07.913Z,3.83
2018-07-20T11:33:36.479Z,3.77
2018-07-20T11:36:06.151Z,3.63
2018-07-20T11:38:35.035Z,3.60
2018-07-20T11:41:03.500Z,3.60
2018-07-20T11:43:32.114Z,4.20
2018-07-20T11:46:00.854Z,4.13
2018-07-20T11:48:29.742Z,4.10
2018-07-20T11:50:58.109Z,3.87
2018-07-20T11:53:26.766Z,3.80
2018-07-20T11:55:55.241Z,3.80
2018-07-20T11:58:23.640Z,3.80
2018-07-20T12:00:52.091Z,3.80
2018-07-20T12:03:20.498Z,3.77
2018-07-20T12:05:49.188Z,3.90
2018-07-20T12:08:17.622Z,3.77
2018-07-20T12:10:46.503Z,3.63
2018-07-20T12:13:16.396Z,3.50
2018-07-20T12:15:45.272Z,4.00
2018-07-20T12:18:13.829Z,3.97
2018-07-20T12:20:42.870Z,3.60
2018-07-20T12:23:11.678Z,4.17
2018-07-20T12:25:40.743Z,3.90
2018-07-20T12:28:09.372Z,4.10
2018-07-20T12:30:37.760Z,3.90
2018-07-20T12:33:06.926Z,4.00
2018-07-20T12:35:36.133Z,3.83
2018-07-20T12:38:05.178Z,4.00
2018-07-20T12:40:34.302Z,3.93
2018-07-20T12:43:03.197Z,4.03
2018-07-20T12:45:32.180Z,4.00
2018-07-20T12:48:02.407Z,3.83
2018-07-20T12:50:36.992Z,3.90
2018-07-20T12:53:05.643Z,3.87
2018-07-20T12:55:34.671Z,3.93
2018-07-20T12:58:03.359Z,4.07
2018-07-20T13:00:32.031Z,4.00
2018-07-20T13:03:00.709Z,3.80
2018-07-20T13:05:30.108Z,3.67
2018-07-20T13:07:59.027Z,3.70
2018-07-20T13:10:28.572Z,4.00
2018-07-20T13:12:57.463Z,4.03
2018-07-20T13:15:26.069Z,3.90
2018-07-20T13:17:54.673Z,3.80
2018-07-20T13:20:23.346Z,3.93
2018-07-20T13:22:52.115Z,3.73
2018-07-20T13:25:20.954Z,3.90
2018-07-20T13:27:49.503Z,3.90
2018-07-20T13:30:18.017Z,3.70
2018-07-20T13:32:46.707Z,4.10
2018-07-20T13:35:15.840Z,4.07
2018-07-20T13:37:44.457Z,4.00
2018-07-20T13:40:13.029Z,3.90
2018-07-20T13:42:41.812Z,4.20
2018-07-20T13:45:10.609Z,4.00
2018-07-20T13:47:39.799Z,4.20
2018-07-20T13:50:08.726Z,4.50
2018-07-20T13:52:37.494Z,4.03
2018-07-20T13:55:06.428Z,3.73
2018-07-20T13:57:35.864Z,3.93
2018-07-20T14:00:06.365Z,3.77
2018-07-20T14:02:40.178Z,4.20
2018-07-20T14:05:09.630Z,4.00
2018-07-20T14:07:40.198Z,4.30
2018-07-20T14:10:08.875Z,3.93
2018-07-20T14:12:38.244Z,3.93
2018-07-20T14:15:07.499Z,3.90
2018-07-20T14:17:36.218Z,4.07
2018-07-20T14:20:05.721Z,3.90
2018-07-20T14:22:34.349Z,4.17
2018-07-20T14:25:02.820Z,3.77
2018-07-20T14:27:31.525Z,3.87
2018-07-20T14:30:00.783Z,3.93
2018-07-20T14:32:29.407Z,4.03
2018-07-20T14:34:58.061Z,4.50
2018-07-20T14:37:27.089Z,4.20
2018-07-20T14:39:56.459Z,4.37
2018-07-20T14:42:25.345Z,4.10
2018-07-20T14:44:53.884Z,3.80
2018-07-20T14:47:22.577Z,4.03
2018-07-20T14:49:51.088Z,3.43
2018-07-20T14:52:19.588Z,3.97
2018-07-20T14:54:51.262Z,3.70
2018-07-20T14:57:21.156Z,4.37
2018-07-20T14:59:50.076Z,3.80
2018-07-20T15:02:19.186Z,3.80
2018-07-20T15:04:50.304Z,4.20
2018-07-20T15:07:19.091Z,4.33
2018-07-20T15:09:47.534Z,4.40
2018-07-20T15:12:16.237Z,3.90
2018-07-20T15:14:44.958Z,4.20
2018-07-20T15:17:14.276Z,4.00
2018-07-20T15:19:42.761Z,4.13
2018-07-20T15:22:11.219Z,3.93
2018-07-20T15:24:39.803Z,4.07
2018-07-20T15:27:08.628Z,4.13
2018-07-20T15:29:37.270Z,3.83
2018-07-20T15:32:05.930Z,4.13
2018-07-20T15:34:34.389Z,4.03
2018-07-20T15:37:03.068Z,4.00
2018-07-20T15:39:31.637Z,4.20
2018-07-20T15:42:00.041Z,4.20
2018-07-20T15:44:28.780Z,4.00
2018-07-20T15:46:57.473Z,3.77
2018-07-20T15:49:25.742Z,4.10
2018-07-20T15:53:35.608Z,4.40
2018-07-20T15:54:22.706Z,4.37
2018-07-20T15:56:52.275Z,4.10
2018-07-20T15:59:20.692Z,3.97
2018-07-20T16:01:49.167Z,3.73
2018-07-20T16:04:17.798Z,3.90
2018-07-20T16:06:47.186Z,4.00
2018-07-20T16:09:16.631Z,3.87
2018-07-20T16:11:45.066Z,4.17
2018-07-20T16:14:13.952Z,4.10
2018-07-20T16:16:43.465Z,4.27
2018-07-20T16:19:11.888Z,4.23
2018-07-20T16:21:40.928Z,3.83
2018-07-20T16:24:09.373Z,4.13
2018-07-20T16:26:38.010Z,4.20
2018-07-20T16:29:06.678Z,4.17
2018-07-20T16:31:35.140Z,4.30
2018-07-20T16:34:03.877Z,4.10
2018-07-20T16:36:32.453Z,4.57
2018-07-20T16:39:01.029Z,3.90
2018-07-20T16:41:29.749Z,4.33
2018-07-20T16:43:58.274Z,4.60
2018-07-20T16:59:09.930Z,4.40
2018-07-20T17:01:39.200Z,5.00
2018-07-20T17:04:07.638Z,4.60
2018-07-20T17:06:36.780Z,4.73
2018-07-20T17:09:09.220Z,4.57
2018-07-20T17:11:38.703Z,4.30
2018-07-20T17:14:07.340Z,4.77
2018-07-20T17:16:36.886Z,4.67
2018-07-20T17:19:05.876Z,4.53
2018-07-20T17:21:34.420Z,4.60
2018-07-20T17:24:02.943Z,4.53
2018-07-20T17:26:32.403Z,4.00
2018-07-20T17:29:00.954Z,4.53
2018-07-20T17:31:29.472Z,4.83
2018-07-20T17:33:58.489Z,4.40
2018-07-20T17:36:26.920Z,4.90
2018-07-20T17:38:55.422Z,5.00
2018-07-20T17:41:23.890Z,5.07
2018-07-20T17:43:53.233Z,5.30
2018-07-20T17:46:21.656Z,4.50
2018-07-20T17:48:51.031Z,4.97
2018-07-20T17:51:19.484Z,4.73
2018-07-20T17:53:48.249Z,4.80
2018-07-20T17:56:16.959Z,4.73
2018-07-20T17:58:45.372Z,4.80
2018-07-20T18:01:14.714Z,5.10
2018-07-20T18:03:43.176Z,4.73
2018-07-20T18:06:12.560Z,5.10
2018-07-20T18:08:40.999Z,4.77
2018-07-20T18:11:10.809Z,4.87
2018-07-20T18:13:39.539Z,4.80
2018-07-20T18:16:08.148Z,4.20
2018-07-20T18:18:36.953Z,4.33
2018-07-20T18:21:05.643Z,5.00
2018-07-20T18:23:34.092Z,4.67
2018-07-20T18:26:03.234Z,5.07
2018-07-20T18:28:31.677Z,5.17
2018-07-20T18:31:00.161Z,5.37
2018-07-20T18:33:28.582Z,5.50
2018-07-20T18:35:57.285Z,4.97
2018-07-20T18:38:25.908Z,5.13
2018-07-20T18:40:54.539Z,5.23
2018-07-20T18:43:24.064Z,5.00
2018-07-20T18:45:52.823Z,5.17
2018-07-20T18:48:21.411Z,5.53
2018-07-20T18:50:50.591Z,5.17
2018-07-20T18:53:19.351Z,5.30
2018-07-20T18:55:47.928Z,5.53
2018-07-20T18:58:16.490Z,5.50
2018-07-20T19:00:45.028Z,5.23
2018-07-20T19:03:13.864Z,5.37
2018-07-20T19:05:42.436Z,5.50
2018-07-20T19:08:11.219Z,5.80
2018-07-20T19:10:57.401Z,5.57
2018-07-20T19:13:25.825Z,5.80
2018-07-20T19:15:57.947Z,5.40
2018-07-20T19:18:26.378Z,5.37
2018-07-20T19:20:55.387Z,5.70
2018-07-20T19:23:23.862Z,5.70
2018-07-20T19:25:52.276Z,6.07
2018-07-20T19:28:20.846Z,6.00
2018-07-20T19:30:49.236Z,5.50
2018-07-20T19:33:18.261Z,6.23
2018-07-20T19:35:47.410Z,5.97
2018-07-20T19:38:15.861Z,5.83
2018-07-20T19:40:44.502Z,5.90
2018-07-20T19:43:12.919Z,5.70
2018-07-20T19:45:41.760Z,5.87
2018-07-20T19:48:10.330Z,5.93
2018-07-20T19:50:38.780Z,5.63
2018-07-20T19:53:07.301Z,5.83
2018-07-20T19:55:35.723Z,6.70
2018-07-20T19:58:04.949Z,6.50
2018-07-20T20:00:33.364Z,5.87
2018-07-20T20:03:03.041Z,6.03
2018-07-20T20:05:31.494Z,6.47
2018-07-20T20:07:59.973Z,6.80
2018-07-20T20:10:28.560Z,6.57
2018-07-20T20:12:57.064Z,6.30
2018-07-20T20:15:26.081Z,6.33
2018-07-20T20:17:54.523Z,6.30
2018-07-20T20:20:24.030Z,6.03
2018-07-20T20:22:52.474Z,6.13
2018-07-20T20:25:20.983Z,6.77
2018-07-20T20:27:49.474Z,6.93
2018-07-20T20:30:17.908Z,7.10
2018-07-20T20:32:46.577Z,7.67
2018-07-20T20:35:15.521Z,7.10
2018-07-20T20:37:43.928Z,7.43
2018-07-20T20:40:12.376Z,7.73
2018-07-20T20:42:40.823Z,7.07
2018-07-20T20:45:11.901Z,7.67
2018-07-20T20:47:40.499Z,7.40
2018-07-20T20:50:09.295Z,7.30
2018-07-20T20:52:37.925Z,7.40
2018-07-20T20:55:06.976Z,7.10
2018-07-20T20:57:35.821Z,7.07
2018-07-20T21:00:05.039Z,6.53
2018-07-20T21:02:33.565Z,7.23
2018-07-20T21:05:02.328Z,7.03
2018-07-20T21:07:30.819Z,7.27
2018-07-20T21:09:59.570Z,7.17
2018-07-20T21:12:28.432Z,7.10
2018-07-20T21:14:56.749Z,6.30
2018-07-20T21:17:25.932Z,6.50
2018-07-20T21:19:54.504Z,6.50
2018-07-20T21:22:22.913Z,6.40
2018-07-20T21:24:51.336Z,6.30
2018-07-20T21:27:19.876Z,6.77
2018-07-20T21:29:48.630Z,6.80
2018-07-20T21:32:17.087Z,6.53
2018-07-20T21:34:45.546Z,6.40
2018-07-20T21:37:14.456Z,7.03
2018-07-20T21:39:42.925Z,6.40
2018-07-20T21:42:11.480Z,6.40
2018-07-20T21:44:39.946Z,6.37
2018-07-20T21:47:08.633Z,6.90
2018-07-20T21:49:37.073Z,6.67
2018-07-20T21:52:05.538Z,6.63
2018-07-20T21:54:33.987Z,6.27
